Terminal Aerodrome Forecast
Issued by NWS Flagstaff, AZ

Home | Current Version | Previous Version | Text Only | Print | Product List | Glossary On
Versions: 1 2 3 4 5 6 7 8 9 10 11 12 13 14 15 16 17 18 19 20 21
000
FTUS45 KFGZ 032320
TAFINW
TAF
KINW 032320Z 0400/0424 11011G18KT P6SM -SHRA FEW030 BKN080 OVC250
      TEMPO 0400/0403 VRB15G23KT -TSRA SCT030 BKN080CB
     FM040300 VRB06KT P6SM SCT100 BKN200
     FM042000 21012KT P6SM SCT080 BKN200 PROB30 0420/0424 VRB15G25KT
      5SM -TSRA BKN040CB=

USA.gov is the U.S. government's official web portal to all federal, state and local government web resources and services.